PRIVATE WETTERSTATION BILLIGHEIM-ALLFELD                       ZURCK
Wetterdaten: Freitag, 06.10.2017
Datum Zeit Temp. A. Temp. A. min Temp. A. max Feuchte A. Luftdruck Regen Wind Richtung Richtung Sonnenschein ET Solar Taupunkt Windchill Windben Empfang
06.10.2017 00:00 7,4 C 7,4 C 7,4 C 94 % 1016,3 hPa 0,0 l/m 1,6 km/h (1 Bft) W-SW 247 0 min 0,000 mm 0 W/m 6,5 C 7,4 C 6,4 km/h (2 Bft) 100 %
06.10.2017 00:10 7,6 C 7,4 C 7,6 C 90 % 1016,3 hPa 0,0 l/m 1,6 km/h (1 Bft) W-SW 247 0 min 0,000 mm 0 W/m 6,1 C 7,6 C 6,4 km/h (2 Bft) 99 %
06.10.2017 00:20 7,7 C 7,6 C 7,7 C 90 % 1016,3 hPa 0,0 l/m 1,6 km/h (1 Bft) SW 225 0 min 0,000 mm 0 W/m 6,2 C 7,7 C 9,7 km/h (2 Bft) 100 %
06.10.2017 00:30 7,8 C 7,7 C 7,8 C 94 % 1016,3 hPa 0,0 l/m 1,6 km/h (1 Bft) W 270 0 min 0,000 mm 0 W/m 6,9 C 7,8 C 8,0 km/h (2 Bft) 100 %
06.10.2017 00:40 8,0 C 7,9 C 8,0 C 90 % 1016,3 hPa 0,0 l/m 3,2 km/h (1 Bft) W-SW 247 0 min 0,000 mm 0 W/m 6,5 C 8,0 C 8,0 km/h (2 Bft) 100 %
06.10.2017 00:50 8,1 C 8,0 C 8,1 C 90 % 1016,2 hPa 0,0 l/m 3,2 km/h (1 Bft) W-SW 247 0 min 0,000 mm 0 W/m 6,6 C 8,1 C 11,3 km/h (2 Bft) 100 %
06.10.2017 01:00 8,1 C 8,1 C 8,1 C 90 % 1016,2 hPa 0,0 l/m 1,6 km/h (1 Bft) W-SW 247 0 min 0,000 mm 0 W/m 6,6 C 8,1 C 9,7 km/h (2 Bft) 99 %
06.10.2017 01:10 8,0 C 8,0 C 8,1 C 90 % 1016,2 hPa 0,0 l/m 3,2 km/h (1 Bft) W-SW 247 0 min 0,000 mm 0 W/m 6,5 C 8,0 C 9,7 km/h (2 Bft) 100 %
06.10.2017 01:20 7,9 C 7,9 C 8,0 C 90 % 1016,1 hPa 0,0 l/m 3,2 km/h (1 Bft) W 270 0 min 0,000 mm 0 W/m 6,4 C 7,9 C 6,4 km/h (2 Bft) 100 %
06.10.2017 01:30 7,8 C 7,8 C 7,9 C 90 % 1016,1 hPa 0,0 l/m 3,2 km/h (1 Bft) W 270 0 min 0,000 mm 0 W/m 6,3 C 7,8 C 9,7 km/h (2 Bft) 100 %
06.10.2017 01:40 7,7 C 7,7 C 7,8 C 90 % 1016,0 hPa 0,0 l/m 3,2 km/h (1 Bft) W 270 0 min 0,000 mm 0 W/m 6,2 C 7,7 C 8,0 km/h (2 Bft) 91 %
06.10.2017 01:50 7,6 C 7,6 C 7,7 C 90 % 1016,2 hPa 0,0 l/m 1,6 km/h (1 Bft) W 270 0 min 0,000 mm 0 W/m 6,1 C 7,6 C 8,0 km/h (2 Bft) 100 %
06.10.2017 02:00 7,4 C 7,4 C 7,6 C 90 % 1016,3 hPa 0,0 l/m 0,0 km/h (0 Bft) W 270 0 min 0,000 mm 0 W/m 5,9 C 7,4 C 3,2 km/h (1 Bft) 100 %
06.10.2017 02:10 7,3 C 7,3 C 7,4 C 90 % 1016,3 hPa 0,0 l/m 0,0 km/h (0 Bft) N 0 0 min 0,000 mm 0 W/m 5,8 C 7,3 C 0,0 km/h (0 Bft) 100 %
06.10.2017 02:20 7,2 C 7,2 C 7,3 C 90 % 1016,4 hPa 0,0 l/m 0,0 km/h (0 Bft) N 0 0 min 0,000 mm 0 W/m 5,7 C 7,2 C 0,0 km/h (0 Bft) 100 %
06.10.2017 02:30 7,1 C 7,1 C 7,2 C 90 % 1016,5 hPa 0,0 l/m 1,6 km/h (1 Bft) W 270 0 min 0,000 mm 0 W/m 5,6 C 7,1 C 9,7 km/h (2 Bft) 100 %
06.10.2017 02:40 7,3 C 7,1 C 7,3 C 90 % 1016,5 hPa 0,0 l/m 4,8 km/h (1 Bft) W-SW 247 0 min 0,000 mm 0 W/m 5,8 C 7,3 C 11,3 km/h (2 Bft) 99 %
06.10.2017 02:50 7,3 C 7,3 C 7,3 C 90 % 1016,5 hPa 0,0 l/m 3,2 km/h (1 Bft) W-SW 247 0 min 0,000 mm 0 W/m 5,8 C 7,3 C 8,0 km/h (2 Bft) 100 %
06.10.2017 03:00 7,2 C 7,2 C 7,3 C 90 % 1016,5 hPa 0,0 l/m 3,2 km/h (1 Bft) W-SW 247 0 min 0,000 mm 0 W/m 5,7 C 7,2 C 9,7 km/h (2 Bft) 100 %
06.10.2017 03:10 7,1 C 7,1 C 7,2 C 90 % 1016,7 hPa 0,0 l/m 3,2 km/h (1 Bft) SW 225 0 min 0,000 mm 0 W/m 5,6 C 7,1 C 8,0 km/h (2 Bft) 100 %
06.10.2017 03:20 7,1 C 7,1 C 7,1 C 90 % 1016,6 hPa 0,0 l/m 1,6 km/h (1 Bft) SW 225 0 min 0,000 mm 0 W/m 5,6 C 7,1 C 6,4 km/h (2 Bft) 100 %
06.10.2017 03:30 6,9 C 6,9 C 7,1 C 90 % 1016,6 hPa 0,0 l/m 0,0 km/h (0 Bft) SW 225 0 min 0,000 mm 0 W/m 5,4 C 6,9 C 4,8 km/h (1 Bft) 100 %
06.10.2017 03:40 6,8 C 6,8 C 6,9 C 90 % 1016,5 hPa 0,0 l/m 0,0 km/h (0 Bft) SW 225 0 min 0,000 mm 0 W/m 5,3 C 6,8 C 8,0 km/h (2 Bft) 100 %
06.10.2017 03:50 6,6 C 6,6 C 6,8 C 90 % 1016,5 hPa 0,0 l/m 1,6 km/h (1 Bft) SW 225 0 min 0,000 mm 0 W/m 5,1 C 6,6 C 9,7 km/h (2 Bft) 100 %
06.10.2017 04:00 6,6 C 6,6 C 6,6 C 90 % 1016,4 hPa 0,0 l/m 1,6 km/h (1 Bft) W-SW 247 0 min 0,000 mm 0 W/m 5,1 C 6,6 C 8,0 km/h (2 Bft) 100 %
06.10.2017 04:10 6,4 C 6,4 C 6,6 C 90 % 1016,4 hPa 0,0 l/m 3,2 km/h (1 Bft) W-SW 247 0 min 0,000 mm 0 W/m 4,9 C 6,4 C 9,7 km/h (2 Bft) 100 %
06.10.2017 04:20 6,4 C 6,4 C 6,4 C 90 % 1016,4 hPa 0,2 l/m 4,8 km/h (1 Bft) W-SW 247 0 min 0,000 mm 0 W/m 4,9 C 6,4 C 9,7 km/h (2 Bft) 100 %
06.10.2017 04:30 6,3 C 6,3 C 6,4 C 90 % 1016,4 hPa 0,0 l/m 3,2 km/h (1 Bft) W-SW 247 0 min 0,000 mm 0 W/m 4,8 C 6,3 C 9,7 km/h (2 Bft) 100 %
06.10.2017 04:40 6,2 C 6,2 C 6,3 C 90 % 1016,5 hPa 0,0 l/m 1,6 km/h (1 Bft) W-SW 247 0 min 0,000 mm 0 W/m 4,7 C 6,2 C 9,7 km/h (2 Bft) 100 %
06.10.2017 04:50 6,1 C 6,1 C 6,2 C 90 % 1016,6 hPa 0,0 l/m 1,6 km/h (1 Bft) SW 225 0 min 0,000 mm 0 W/m 4,6 C 6,1 C 11,3 km/h (2 Bft) 100 %
06.10.2017 05:00 6,0 C 6,0 C 6,1 C 90 % 1016,5 hPa 0,0 l/m 3,2 km/h (1 Bft) W-SW 247 0 min 0,000 mm 0 W/m 4,5 C 6,0 C 9,7 km/h (2 Bft) 100 %
06.10.2017 05:10 5,9 C 5,9 C 6,0 C 90 % 1016,6 hPa 0,0 l/m 1,6 km/h (1 Bft) W-SW 247 0 min 0,000 mm 0 W/m 4,4 C 5,9 C 16,1 km/h (3 Bft) 100 %
06.10.2017 05:20 5,8 C 5,8 C 5,9 C 90 % 1016,7 hPa 0,0 l/m 1,6 km/h (1 Bft) W-SW 247 0 min 0,000 mm 0 W/m 4,3 C 5,8 C 8,0 km/h (2 Bft) 100 %
06.10.2017 05:30 5,8 C 5,8 C 5,9 C 90 % 1016,9 hPa 0,0 l/m 1,6 km/h (1 Bft) W-SW 247 0 min 0,000 mm 0 W/m 4,3 C 5,8 C 8,0 km/h (2 Bft) 100 %
06.10.2017 05:40 5,8 C 5,8 C 5,8 C 90 % 1016,9 hPa 0,0 l/m 0,0 km/h (0 Bft) W-SW 247 0 min 0,000 mm 0 W/m 4,3 C 5,8 C 4,8 km/h (1 Bft) 100 %
06.10.2017 05:50 5,8 C 5,7 C 5,8 C 90 % 1016,9 hPa 0,0 l/m 0,0 km/h (0 Bft) W-SW 247 0 min 0,000 mm 0 W/m 4,3 C 5,8 C 4,8 km/h (1 Bft) 100 %
06.10.2017 06:00 5,6 C 5,6 C 5,7 C 90 % 1016,7 hPa 0,0 l/m 3,2 km/h (1 Bft) W-SW 247 0 min 0,000 mm 0 W/m 4,1 C 5,6 C 9,7 km/h (2 Bft) 100 %
06.10.2017 06:10 5,7 C 5,6 C 5,7 C 90 % 1016,8 hPa 0,0 l/m 3,2 km/h (1 Bft) S-SW 202 0 min 0,000 mm 0 W/m 4,2 C 5,7 C 9,7 km/h (2 Bft) 100 %
06.10.2017 06:20 5,8 C 5,7 C 5,8 C 90 % 1016,7 hPa 0,0 l/m 3,2 km/h (1 Bft) S-SW 202 0 min 0,000 mm 0 W/m 4,3 C 5,8 C 9,7 km/h (2 Bft) 100 %
06.10.2017 06:30 5,8 C 5,8 C 5,8 C 90 % 1016,8 hPa 0,0 l/m 1,6 km/h (1 Bft) S-SW 202 0 min 0,000 mm 0 W/m 4,3 C 5,8 C 9,7 km/h (2 Bft) 100 %
06.10.2017 06:40 5,7 C 5,7 C 5,8 C 90 % 1017,1 hPa 0,0 l/m 0,0 km/h (0 Bft) N 0 0 min 0,000 mm 0 W/m 4,2 C 5,7 C 0,0 km/h (0 Bft) 100 %
06.10.2017 06:50 5,6 C 5,6 C 5,7 C 90 % 1017,0 hPa 0,0 l/m 0,0 km/h (0 Bft) N 0 0 min 0,000 mm 0 W/m 4,1 C 5,6 C 0,0 km/h (0 Bft) 100 %
06.10.2017 07:00 5,6 C 5,6 C 5,7 C 90 % 1017,0 hPa 0,0 l/m 0,0 km/h (0 Bft) N 0 0 min 0,000 mm 0 W/m 4,1 C 5,6 C 0,0 km/h (0 Bft) 100 %
06.10.2017 07:10 5,6 C 5,5 C 5,6 C 90 % 1017,0 hPa 0,0 l/m 0,0 km/h (0 Bft) N 0 0 min 0,000 mm 0 W/m 4,1 C 5,6 C 0,0 km/h (0 Bft) 100 %
06.10.2017 07:20 5,6 C 5,6 C 5,6 C 90 % 1017,1 hPa 0,0 l/m 1,6 km/h (1 Bft) S-SW 202 0 min 0,000 mm 0 W/m 4,1 C 5,6 C 8,0 km/h (2 Bft) 100 %
06.10.2017 07:30 5,7 C 5,6 C 5,7 C 90 % 1017,1 hPa 0,0 l/m 1,6 km/h (1 Bft) W-SW 247 0 min 0,000 mm 0 W/m 4,2 C 5,7 C 6,4 km/h (2 Bft) 100 %
06.10.2017 07:40 5,8 C 5,7 C 5,8 C 90 % 1017,1 hPa 0,0 l/m 1,6 km/h (1 Bft) W-SW 247 0 min 0,000 mm 5 W/m 4,3 C 5,8 C 6,4 km/h (2 Bft) 100 %
06.10.2017 07:50 5,8 C 5,8 C 5,8 C 90 % 1017,2 hPa 0,0 l/m 1,6 km/h (1 Bft) W 270 0 min 0,000 mm 9 W/m 4,3 C 5,8 C 8,0 km/h (2 Bft) 100 %
06.10.2017 08:00 5,8 C 5,8 C 5,9 C 90 % 1017,1 hPa 0,0 l/m 1,6 km/h (1 Bft) W 270 0 min 0,000 mm 12 W/m 4,3 C 5,8 C 14,5 km/h (3 Bft) 91 %
06.10.2017 08:10 5,8 C 5,8 C 5,9 C 90 % 1017,2 hPa 0,0 l/m 0,0 km/h (0 Bft) N 0 0 min 0,000 mm 21 W/m 4,3 C 5,8 C 0,0 km/h (0 Bft) 100 %
06.10.2017 08:20 5,9 C 5,8 C 5,9 C 90 % 1017,4 hPa 0,0 l/m 1,6 km/h (1 Bft) S-SW 202 0 min 0,000 mm 40 W/m 4,4 C 5,9 C 6,4 km/h (2 Bft) 99 %
06.10.2017 08:30 6,2 C 5,9 C 6,2 C 90 % 1017,4 hPa 0,0 l/m 0,0 km/h (0 Bft) N 0 0 min 0,000 mm 32 W/m 4,7 C 6,2 C 0,0 km/h (0 Bft) 100 %
06.10.2017 08:40 6,3 C 6,2 C 6,3 C 90 % 1017,5 hPa 0,0 l/m 0,0 km/h (0 Bft) S-SW 202 0 min 0,000 mm 60 W/m 4,8 C 6,3 C 4,8 km/h (1 Bft) 100 %
06.10.2017 08:50 6,4 C 6,3 C 6,4 C 90 % 1017,6 hPa 0,0 l/m 1,6 km/h (1 Bft) W 270 0 min 0,000 mm 79 W/m 4,9 C 6,4 C 8,0 km/h (2 Bft) 100 %
06.10.2017 09:00 6,6 C 6,4 C 6,6 C 90 % 1017,6 hPa 0,0 l/m 1,6 km/h (1 Bft) SW 225 0 min 0,025 mm 127 W/m 5,1 C 6,6 C 12,9 km/h (3 Bft) 100 %
06.10.2017 09:10 6,8 C 6,6 C 6,8 C 90 % 1017,6 hPa 0,0 l/m 1,6 km/h (1 Bft) SW 225 0 min 0,000 mm 118 W/m 5,3 C 6,8 C 9,7 km/h (2 Bft) 100 %
06.10.2017 09:20 6,9 C 6,8 C 6,9 C 90 % 1017,7 hPa 0,0 l/m 1,6 km/h (1 Bft) W 270 0 min 0,000 mm 114 W/m 5,4 C 6,9 C 8,0 km/h (2 Bft) 100 %
06.10.2017 09:30 7,2 C 6,9 C 7,2 C 90 % 1017,8 hPa 0,0 l/m 3,2 km/h (1 Bft) W 270 0 min 0,000 mm 123 W/m 5,7 C 7,2 C 8,0 km/h (2 Bft) 100 %
06.10.2017 09:40 7,3 C 7,2 C 7,3 C 90 % 1018,0 hPa 0,0 l/m 4,8 km/h (1 Bft) W 270 10 min 0,000 mm 225 W/m 5,8 C 7,3 C 9,7 km/h (2 Bft) 100 %
06.10.2017 09:50 7,5 C 7,3 C 7,5 C 90 % 1018,0 hPa 0,0 l/m 6,4 km/h (2 Bft) W-SW 247 10 min 0,000 mm 246 W/m 6,0 C 7,5 C 16,1 km/h (3 Bft) 100 %
06.10.2017 10:00 7,4 C 7,4 C 7,6 C 90 % 1018,0 hPa 0,0 l/m 8,0 km/h (2 Bft) W 270 0 min 0,051 mm 146 W/m 5,9 C 6,1 C 16,1 km/h (3 Bft) 100 %
06.10.2017 10:10 7,8 C 7,4 C 7,8 C 90 % 1018,0 hPa 0,0 l/m 9,7 km/h (2 Bft) W 270 10 min 0,000 mm 420 W/m 6,3 C 5,4 C 16,1 km/h (3 Bft) 100 %
06.10.2017 10:20 8,5 C 7,8 C 8,5 C 90 % 1017,9 hPa 0,0 l/m 6,4 km/h (2 Bft) W-SW 247 10 min 0,000 mm 403 W/m 7,0 C 8,5 C 17,7 km/h (3 Bft) 100 %
06.10.2017 10:30 8,7 C 8,5 C 8,8 C 90 % 1017,9 hPa 0,0 l/m 8,0 km/h (2 Bft) W 270 10 min 0,000 mm 315 W/m 7,2 C 7,5 C 16,1 km/h (3 Bft) 100 %
06.10.2017 10:40 8,9 C 8,7 C 8,9 C 90 % 1018,1 hPa 0,0 l/m 9,7 km/h (2 Bft) W 270 10 min 0,000 mm 323 W/m 7,4 C 6,6 C 20,9 km/h (4 Bft) 100 %
06.10.2017 10:50 8,8 C 8,7 C 8,9 C 90 % 1018,1 hPa 0,0 l/m 9,7 km/h (2 Bft) W 270 10 min 0,000 mm 404 W/m 7,3 C 6,5 C 22,5 km/h (4 Bft) 100 %
06.10.2017 11:00 9,2 C 8,8 C 9,2 C 90 % 1018,1 hPa 0,0 l/m 8,0 km/h (2 Bft) W 270 10 min 0,127 mm 378 W/m 7,6 C 8,0 C 19,3 km/h (3 Bft) 100 %
06.10.2017 11:10 9,3 C 9,2 C 9,3 C 90 % 1018,1 hPa 0,0 l/m 9,7 km/h (2 Bft) W 270 10 min 0,000 mm 366 W/m 7,7 C 7,0 C 20,9 km/h (4 Bft) 100 %
06.10.2017 11:20 9,4 C 9,3 C 9,5 C 90 % 1018,2 hPa 0,0 l/m 6,4 km/h (2 Bft) W 270 10 min 0,000 mm 288 W/m 7,8 C 9,4 C 20,9 km/h (4 Bft) 100 %
06.10.2017 11:30 9,4 C 9,4 C 9,6 C 90 % 1018,3 hPa 0,0 l/m 8,0 km/h (2 Bft) W-SW 247 10 min 0,000 mm 236 W/m 7,8 C 8,2 C 17,7 km/h (3 Bft) 100 %
06.10.2017 11:40 9,4 C 9,4 C 9,5 C 89 % 1018,4 hPa 0,0 l/m 8,0 km/h (2 Bft) W 270 10 min 0,000 mm 206 W/m 7,7 C 8,2 C 17,7 km/h (3 Bft) 100 %
06.10.2017 11:50 9,4 C 9,4 C 9,4 C 89 % 1018,3 hPa 0,0 l/m 6,4 km/h (2 Bft) W 270 10 min 0,000 mm 172 W/m 7,7 C 9,4 C 19,3 km/h (3 Bft) 100 %
06.10.2017 12:00 9,6 C 9,4 C 9,6 C 90 % 1018,4 hPa 0,0 l/m 6,4 km/h (2 Bft) W-NW 292 10 min 0,102 mm 264 W/m 8,0 C 9,6 C 17,7 km/h (3 Bft) 100 %
06.10.2017 12:10 9,6 C 9,5 C 9,6 C 89 % 1018,6 hPa 0,0 l/m 8,0 km/h (2 Bft) W-NW 292 0 min 0,000 mm 142 W/m 7,9 C 8,4 C 19,3 km/h (3 Bft) 100 %
06.10.2017 12:20 9,4 C 9,4 C 9,6 C 90 % 1018,8 hPa 0,4 l/m 8,0 km/h (2 Bft) W-NW 292 0 min 0,000 mm 79 W/m 7,8 C 8,2 C 17,7 km/h (3 Bft) 100 %
06.10.2017 12:30 9,1 C 9,1 C 9,4 C 90 % 1019,0 hPa 1,2 l/m 11,3 km/h (2 Bft) NW 315 0 min 0,000 mm 32 W/m 7,5 C 5,9 C 22,5 km/h (4 Bft) 100 %
06.10.2017 12:40 8,8 C 8,8 C 9,1 C 90 % 1019,0 hPa 0,2 l/m 11,3 km/h (2 Bft) NW 315 0 min 0,000 mm 121 W/m 7,3 C 5,5 C 25,7 km/h (4 Bft) 100 %
06.10.2017 12:50 8,8 C 8,7 C 8,8 C 90 % 1018,8 hPa 0,0 l/m 6,4 km/h (2 Bft) W-NW 292 10 min 0,000 mm 257 W/m 7,3 C 8,8 C 14,5 km/h (3 Bft) 100 %
06.10.2017 13:00 9,1 C 8,8 C 9,1 C 90 % 1018,9 hPa 0,0 l/m 11,3 km/h (2 Bft) W 270 10 min 0,051 mm 320 W/m 7,5 C 5,9 C 22,5 km/h (4 Bft) 100 %
06.10.2017 13:10 9,3 C 9,1 C 9,3 C 89 % 1018,9 hPa 0,0 l/m 8,0 km/h (2 Bft) W 270 10 min 0,000 mm 436 W/m 7,6 C 8,1 C 20,9 km/h (4 Bft) 100 %
06.10.2017 13:20 9,6 C 9,3 C 9,6 C 89 % 1018,9 hPa 0,0 l/m 8,0 km/h (2 Bft) W 270 10 min 0,000 mm 352 W/m 7,9 C 8,4 C 20,9 km/h (4 Bft) 100 %
06.10.2017 13:30 9,6 C 9,6 C 9,7 C 90 % 1018,9 hPa 0,0 l/m 8,0 km/h (2 Bft) W-NW 292 10 min 0,000 mm 251 W/m 8,0 C 8,4 C 19,3 km/h (3 Bft) 100 %
06.10.2017 13:40 9,5 C 9,4 C 9,6 C 90 % 1018,9 hPa 0,0 l/m 11,3 km/h (2 Bft) W-NW 292 10 min 0,000 mm 406 W/m 7,9 C 6,3 C 30,6 km/h (5 Bft) 100 %
06.10.2017 13:50 9,8 C 9,5 C 9,8 C 90 % 1018,8 hPa 0,0 l/m 8,0 km/h (2 Bft) W-NW 292 10 min 0,000 mm 439 W/m 8,2 C 8,6 C 17,7 km/h (3 Bft) 98 %
06.10.2017 14:00 9,8 C 9,8 C 9,9 C 89 % 1018,7 hPa 0,0 l/m 6,4 km/h (2 Bft) W 270 10 min 0,127 mm 251 W/m 8,1 C 9,8 C 17,7 km/h (3 Bft) 97 %
06.10.2017 14:10 9,9 C 9,8 C 9,9 C 89 % 1018,7 hPa 0,0 l/m 9,7 km/h (2 Bft) W 270 10 min 0,000 mm 360 W/m 8,2 C 7,7 C 22,5 km/h (4 Bft) 97 %
06.10.2017 14:20 10,4 C 9,9 C 10,4 C 90 % 1018,7 hPa 0,0 l/m 9,7 km/h (2 Bft) W 270 10 min 0,000 mm 605 W/m 8,8 C 8,2 C 24,1 km/h (4 Bft) 98 %
06.10.2017 14:30 10,3 C 10,3 C 10,5 C 89 % 1018,7 hPa 0,0 l/m 9,7 km/h (2 Bft) W-SW 247 10 min 0,000 mm 371 W/m 8,6 C 8,1 C 20,9 km/h (4 Bft) 97 %
06.10.2017 14:40 10,2 C 10,2 C 10,3 C 89 % 1018,6 hPa 0,0 l/m 8,0 km/h (2 Bft) W-NW 292 10 min 0,000 mm 267 W/m 8,5 C 9,1 C 17,7 km/h (3 Bft) 98 %
06.10.2017 14:50 10,1 C 10,1 C 10,2 C 88 % 1018,7 hPa 0,0 l/m 9,7 km/h (2 Bft) W 270 10 min 0,000 mm 258 W/m 8,2 C 7,9 C 20,9 km/h (4 Bft) 97 %
06.10.2017 15:00 10,1 C 10,1 C 10,1 C 88 % 1018,6 hPa 0,0 l/m 11,3 km/h (2 Bft) W 270 10 min 0,127 mm 308 W/m 8,2 C 7,0 C 24,1 km/h (4 Bft) 98 %
06.10.2017 15:10 10,4 C 10,1 C 10,4 C 89 % 1018,7 hPa 0,0 l/m 9,7 km/h (2 Bft) W 270 10 min 0,000 mm 366 W/m 8,7 C 8,2 C 22,5 km/h (4 Bft) 98 %
06.10.2017 15:20 10,9 C 10,4 C 10,9 C 88 % 1018,8 hPa 0,0 l/m 8,0 km/h (2 Bft) W 270 10 min 0,000 mm 513 W/m 9,0 C 9,8 C 17,7 km/h (3 Bft) 97 %
06.10.2017 15:30 10,7 C 10,7 C 10,9 C 87 % 1018,8 hPa 0,0 l/m 9,7 km/h (2 Bft) W 270 10 min 0,000 mm 183 W/m 8,6 C 8,5 C 29,0 km/h (5 Bft) 97 %
06.10.2017 15:40 10,3 C 10,3 C 10,7 C 86 % 1018,9 hPa 0,0 l/m 6,4 km/h (2 Bft) W 270 0 min 0,000 mm 97 W/m 8,1 C 10,3 C 17,7 km/h (3 Bft) 98 %
06.10.2017 15:50 10,1 C 10,1 C 10,3 C 88 % 1019,1 hPa 0,2 l/m 4,8 km/h (1 Bft) W-SW 247 0 min 0,000 mm 53 W/m 8,2 C 10,1 C 14,5 km/h (3 Bft) 98 %
06.10.2017 16:00 9,9 C 9,9 C 10,1 C 89 % 1019,2 hPa 0,0 l/m 3,2 km/h (1 Bft) W 270 0 min 0,076 mm 63 W/m 8,2 C 9,9 C 11,3 km/h (2 Bft) 97 %
06.10.2017 16:10 9,8 C 9,8 C 9,9 C 89 % 1019,3 hPa 0,0 l/m 8,0 km/h (2 Bft) W 270 0 min 0,000 mm 83 W/m 8,1 C 8,6 C 20,9 km/h (4 Bft) 98 %
06.10.2017 16:20 9,8 C 9,8 C 9,8 C 89 % 1019,3 hPa 0,0 l/m 9,7 km/h (2 Bft) W-NW 292 0 min 0,000 mm 127 W/m 8,1 C 7,6 C 22,5 km/h (4 Bft) 97 %
06.10.2017 16:30 9,8 C 9,8 C 9,8 C 89 % 1019,3 hPa 0,0 l/m 9,7 km/h (2 Bft) W-NW 292 0 min 0,000 mm 134 W/m 8,1 C 7,6 C 24,1 km/h (4 Bft) 97 %
06.10.2017 16:40 9,7 C 9,7 C 9,8 C 89 % 1019,3 hPa 0,0 l/m 9,7 km/h (2 Bft) W 270 0 min 0,000 mm 135 W/m 8,0 C 7,4 C 20,9 km/h (4 Bft) 98 %
06.10.2017 16:50 9,7 C 9,7 C 9,7 C 89 % 1019,3 hPa 0,0 l/m 9,7 km/h (2 Bft) W-NW 292 0 min 0,000 mm 120 W/m 8,0 C 7,4 C 27,4 km/h (4 Bft) 98 %
06.10.2017 17:00 9,8 C 9,7 C 9,8 C 90 % 1019,5 hPa 0,0 l/m 8,0 km/h (2 Bft) W-NW 292 0 min 0,051 mm 102 W/m 8,2 C 8,6 C 20,9 km/h (4 Bft) 98 %
06.10.2017 17:10 9,7 C 9,7 C 9,8 C 89 % 1019,5 hPa 0,0 l/m 6,4 km/h (2 Bft) W-NW 292 0 min 0,000 mm 91 W/m 8,0 C 9,7 C 19,3 km/h (3 Bft) 97 %
06.10.2017 17:20 9,6 C 9,6 C 9,7 C 89 % 1019,5 hPa 0,0 l/m 8,0 km/h (2 Bft) W 270 0 min 0,000 mm 83 W/m 7,9 C 8,4 C 20,9 km/h (4 Bft) 98 %
06.10.2017 17:30 9,6 C 9,6 C 9,6 C 89 % 1019,5 hPa 0,0 l/m 9,7 km/h (2 Bft) W 270 0 min 0,000 mm 111 W/m 7,9 C 7,3 C 19,3 km/h (3 Bft) 97 %
06.10.2017 17:40 9,6 C 9,5 C 9,6 C 89 % 1019,6 hPa 0,0 l/m 9,7 km/h (2 Bft) W 270 0 min 0,000 mm 81 W/m 7,9 C 7,3 C 20,9 km/h (4 Bft) 97 %
06.10.2017 17:50 9,5 C 9,5 C 9,6 C 89 % 1019,8 hPa 0,0 l/m 6,4 km/h (2 Bft) W 270 0 min 0,000 mm 79 W/m 7,8 C 9,5 C 14,5 km/h (3 Bft) 99 %
06.10.2017 18:10 9,4 C 9,4 C 9,6 C 89 % 1020,2 hPa 0,0 l/m 6,8 km/h (2 Bft) W-NW 297 0 min 0,025 mm 33 W/m 7,7 C 9,1 C 16,1 km/h (3 Bft) 98 %
06.10.2017 18:20 9,3 C 9,3 C 9,4 C 89 % 1020,1 hPa 0,0 l/m 7,0 km/h (2 Bft) W-SW 256 0 min 0,000 mm 14 W/m 7,6 C 8,9 C 16,1 km/h (3 Bft) 98 %
06.10.2017 18:30 9,1 C 9,1 C 9,3 C 89 % 1020,2 hPa 0,0 l/m 6,0 km/h (2 Bft) W-NW 290 0 min 0,000 mm 9 W/m 7,4 C 9,1 C 11,3 km/h (2 Bft) 97 %
06.10.2017 18:40 9,1 C 9,1 C 9,1 C 90 % 1020,4 hPa 0,0 l/m 5,0 km/h (1 Bft) W-NW 284 0 min 0,000 mm 5 W/m 7,5 C 9,1 C 11,3 km/h (2 Bft) 98 %
06.10.2017 18:50 9,0 C 9,0 C 9,1 C 90 % 1020,5 hPa 0,0 l/m 5,3 km/h (1 Bft) W-NW 288 0 min 0,000 mm 0 W/m 7,4 C 9,0 C 14,5 km/h (3 Bft) 97 %
06.10.2017 19:00 9,0 C 9,0 C 9,0 C 90 % 1020,5 hPa 0,0 l/m 5,0 km/h (1 Bft) NW 309 0 min 0,025 mm 0 W/m 7,4 C 9,0 C 11,3 km/h (2 Bft) 98 %
06.10.2017 19:10 9,0 C 9,0 C 9,1 C 90 % 1020,7 hPa 0,0 l/m 6,6 km/h (2 Bft) W 269 0 min 0,000 mm 0 W/m 7,4 C 8,9 C 16,1 km/h (3 Bft) 97 %
06.10.2017 19:20 9,1 C 9,0 C 9,1 C 90 % 1020,9 hPa 0,0 l/m 4,9 km/h (1 Bft) W-NW 289 0 min 0,000 mm 0 W/m 7,5 C 9,1 C 14,5 km/h (3 Bft) 97 %
06.10.2017 19:30 9,0 C 9,0 C 9,1 C 90 % 1020,9 hPa 0,0 l/m 5,0 km/h (1 Bft) W 280 0 min 0,000 mm 0 W/m 7,4 C 9,0 C 11,3 km/h (2 Bft) 98 %
06.10.2017 19:40 9,0 C 9,0 C 9,1 C 90 % 1021,0 hPa 0,0 l/m 3,6 km/h (1 Bft) W-NW 302 0 min 0,000 mm 0 W/m 7,4 C 9,0 C 11,3 km/h (2 Bft) 89 %
06.10.2017 19:50 9,1 C 9,0 C 9,1 C 90 % 1021,1 hPa 0,0 l/m 3,8 km/h (1 Bft) W 265 0 min 0,000 mm 0 W/m 7,5 C 9,1 C 11,3 km/h (2 Bft) 97 %
06.10.2017 20:00 9,0 C 9,0 C 9,1 C 90 % 1021,2 hPa 0,0 l/m 4,4 km/h (1 Bft) W-SW 245 0 min 0,000 mm 0 W/m 7,4 C 9,0 C 11,3 km/h (2 Bft) 97 %
06.10.2017 20:10 8,9 C 8,9 C 9,0 C 90 % 1021,3 hPa 0,0 l/m 3,4 km/h (1 Bft) W 277 0 min 0,000 mm 0 W/m 7,4 C 8,9 C 11,3 km/h (2 Bft) 97 %
06.10.2017 20:20 8,9 C 8,9 C 8,9 C 90 % 1021,4 hPa 0,0 l/m 1,9 km/h (1 Bft) W-NW 290 0 min 0,000 mm 0 W/m 7,4 C 8,9 C 8,0 km/h (2 Bft) 98 %
06.10.2017 20:30 8,8 C 8,8 C 8,9 C 90 % 1021,5 hPa 0,0 l/m 0,0 km/h (0 Bft) W-NW 290 0 min 0,000 mm 0 W/m 7,3 C 8,8 C 0,0 km/h (0 Bft) 97 %
06.10.2017 20:40 8,7 C 8,7 C 8,8 C 90 % 1021,5 hPa 0,0 l/m 0,0 km/h (0 Bft) W-NW 290 0 min 0,000 mm 0 W/m 7,2 C 8,7 C 0,0 km/h (0 Bft) 97 %
06.10.2017 20:50 8,6 C 8,6 C 8,7 C 90 % 1021,7 hPa 0,0 l/m 0,5 km/h (0 Bft) W 272 0 min 0,000 mm 0 W/m 7,1 C 8,6 C 11,3 km/h (2 Bft) 98 %
06.10.2017 21:00 8,7 C 8,6 C 8,7 C 90 % 1021,8 hPa 0,0 l/m 3,1 km/h (1 Bft) W 275 0 min 0,000 mm 0 W/m 7,2 C 8,7 C 8,0 km/h (2 Bft) 88 %
06.10.2017 21:10 8,7 C 8,7 C 8,7 C 90 % 1021,8 hPa 0,0 l/m 4,8 km/h (1 Bft) W 270 0 min 0,000 mm 0 W/m 7,2 C 8,7 C 9,7 km/h (2 Bft) 100 %
06.10.2017 21:20 8,7 C 8,7 C 8,7 C 90 % 1022,0 hPa 0,0 l/m 3,2 km/h (1 Bft) W-NW 292 0 min 0,000 mm 0 W/m 7,2 C 8,7 C 9,7 km/h (2 Bft) 99 %
06.10.2017 21:30 8,7 C 8,7 C 8,7 C 90 % 1022,1 hPa 0,0 l/m 4,8 km/h (1 Bft) W 270 0 min 0,000 mm 0 W/m 7,2 C 8,7 C 11,3 km/h (2 Bft) 100 %
06.10.2017 21:40 8,6 C 8,6 C 8,7 C 90 % 1022,3 hPa 0,0 l/m 3,2 km/h (1 Bft) W 270 0 min 0,000 mm 0 W/m 7,1 C 8,6 C 9,7 km/h (2 Bft) 99 %
06.10.2017 21:50 8,6 C 8,6 C 8,6 C 90 % 1022,4 hPa 0,0 l/m 4,8 km/h (1 Bft) W 270 0 min 0,000 mm 0 W/m 7,1 C 8,6 C 9,7 km/h (2 Bft) 100 %
06.10.2017 22:00 8,7 C 8,6 C 8,7 C 90 % 1022,4 hPa 0,0 l/m 4,8 km/h (1 Bft) W-NW 292 0 min 0,000 mm 0 W/m 7,2 C 8,7 C 14,5 km/h (3 Bft) 100 %
06.10.2017 22:10 8,7 C 8,7 C 8,7 C 90 % 1022,5 hPa 0,0 l/m 6,4 km/h (2 Bft) W-SW 247 0 min 0,000 mm 0 W/m 7,2 C 8,7 C 16,1 km/h (3 Bft) 100 %
06.10.2017 22:20 8,7 C 8,7 C 8,7 C 90 % 1022,5 hPa 0,0 l/m 6,4 km/h (2 Bft) W-SW 247 0 min 0,000 mm 0 W/m 7,2 C 8,7 C 16,1 km/h (3 Bft) 100 %
06.10.2017 22:30 8,6 C 8,6 C 8,7 C 90 % 1022,6 hPa 0,0 l/m 4,8 km/h (1 Bft) W 270 0 min 0,000 mm 0 W/m 7,1 C 8,6 C 14,5 km/h (3 Bft) 99 %
06.10.2017 22:40 8,6 C 8,6 C 8,6 C 90 % 1022,7 hPa 0,0 l/m 4,8 km/h (1 Bft) W 270 0 min 0,000 mm 0 W/m 7,1 C 8,6 C 14,5 km/h (3 Bft) 100 %
06.10.2017 22:50 8,6 C 8,6 C 8,6 C 90 % 1022,9 hPa 0,0 l/m 3,2 km/h (1 Bft) W 270 0 min 0,000 mm 0 W/m 7,1 C 8,6 C 11,3 km/h (2 Bft) 100 %
06.10.2017 23:00 8,6 C 8,6 C 8,6 C 90 % 1023,0 hPa 0,0 l/m 3,2 km/h (1 Bft) W 270 0 min 0,000 mm 0 W/m 7,1 C 8,6 C 8,0 km/h (2 Bft) 100 %
06.10.2017 23:10 8,6 C 8,6 C 8,6 C 90 % 1023,1 hPa 0,0 l/m 3,2 km/h (1 Bft) W-SW 247 0 min 0,000 mm 0 W/m 7,1 C 8,6 C 9,7 km/h (2 Bft) 100 %
06.10.2017 23:20 8,6 C 8,6 C 8,6 C 90 % 1023,1 hPa 0,0 l/m 3,2 km/h (1 Bft) W-SW 247 0 min 0,000 mm 0 W/m 7,1 C 8,6 C 9,7 km/h (2 Bft) 100 %
06.10.2017 23:30 8,6 C 8,6 C 8,6 C 90 % 1023,1 hPa 0,0 l/m 4,8 km/h (1 Bft) W 270 0 min 0,000 mm 0 W/m 7,1 C 8,6 C 11,3 km/h (2 Bft) 100 %
06.10.2017 23:40 8,6 C 8,6 C 8,6 C 90 % 1023,2 hPa 0,0 l/m 3,2 km/h (1 Bft) W 270 0 min 0,000 mm 0 W/m 7,1 C 8,6 C 9,7 km/h (2 Bft) 100 %
06.10.2017 23:50 8,5 C 8,5 C 8,6 C 90 % 1023,2 hPa 0,0 l/m 1,6 km/h (1 Bft) W-NW 292 0 min 0,000 mm 0 W/m 7,0 C 8,5 C 6,4 km/h (2 Bft) 100 %
_ Min-Zeit 07:10 07:10 07:10 15:40 01:40 - 02:00 - - - - - 06:00 10:10 02:10 21:00
Minimum _ 5,5 C 5,5 C 5,6 C 86 % 1016,0 hPa - 0,0 km/h (0 Bft) - - - - - 4,1 C 5,4 C 0,0 km/h (0 Bft) 88 %
_ Max-Zeit 15:20 15:30 15:20 00:00 23:40 12:30 12:30 - - 09:40 11:00 14:20 15:20 15:40 13:40 00:00
Maximum _ 10,9 C 10,7 C 10,9 C 94 % 1023,2 hPa 1,2 l/m 11,3 km/h
NW (2 Bft)
- - 10 min 0,127 mm 605 W/m 9,0 C 10,3 C 30,6 km/h
W-SW (5 Bft)
100 %
Durchschnitt _ 8,2 C 8,1 C 8,2 C 90 % 1018,7 hPa #2,2 l/m 4,6 km/h (1 Bft) W - #5:10 h #0,787 mm 195 W/m 6,6 C 7,7 C 12,6 km/h (3 Bft) 99 %
PRIVATE WETTERSTATION BILLIGHEIM-ALLFELD - www.neckar-odenwald-wetter.de - Holger Sonntag